Time,TemperatureF,DewpointF,PressureIn,WindDirection,WindDirectionDegrees,WindSpeedMPH,WindSpeedGustMPH,Humidity,HourlyPrecipIn,Conditions,Clouds,dailyrainin,SoftwareType,DateUTC
2013-02-16 00:00:00,28.0,21.0,30.21,NNW,337,3.0,6.0,71,0.00,,,0.00,Rainwise IP-100,2013-02-16 06:00:00,
2013-02-16 00:05:00,28.0,21.0,30.21,NNW,337,6.0,6.0,72,0.00,,,0.00,Rainwise IP-100,2013-02-16 06:05:00,
2013-02-16 00:10:00,28.0,21.0,30.21,North,360,6.0,6.0,72,0.00,,,0.00,Rainwise IP-100,2013-02-16 06:10:00,
2013-02-16 00:15:00,28.0,21.0,30.21,North,360,5.0,6.0,72,0.00,,,0.00,Rainwise IP-100,2013-02-16 06:15:00,
2013-02-16 00:20:00,28.0,21.0,30.21,North,360,6.0,7.0,70,0.00,,,0.00,Rainwise IP-100,2013-02-16 06:20:00,
2013-02-16 00:25:00,28.0,21.0,30.21,North,360,6.0,7.0,71,0.00,,,0.00,Rainwise IP-100,2013-02-16 06:25:00,
2013-02-16 00:30:00,28.0,21.0,30.21,North,360,5.0,7.0,71,0.00,,,0.00,Rainwise IP-100,2013-02-16 06:30:00,
2013-02-16 00:35:00,28.0,21.0,30.21,NNE,22,5.0,7.0,74,0.00,,,0.00,Rainwise IP-100,2013-02-16 06:35:00,
2013-02-16 00:36:00,28.0,21.0,30.21,NNE,22,6.0,7.0,76,0.00,,,0.00,Rainwise IP-100,2013-02-16 06:36:00,
2013-02-16 00:41:00,28.0,21.0,30.21,North,360,6.0,6.0,76,0.00,,,0.00,Rainwise IP-100,2013-02-16 06:41:00,
2013-02-16 00:46:00,28.0,21.0,30.21,North,360,6.0,6.0,75,0.00,,,0.00,Rainwise IP-100,2013-02-16 06:46:00,
2013-02-16 00:51:00,27.0,21.0,30.20,North,360,6.0,7.0,74,0.00,,,0.00,Rainwise IP-100,2013-02-16 06:51:00,
2013-02-16 00:56:00,27.0,23.0,30.20,North,360,4.0,6.0,77,0.00,,,0.00,Rainwise IP-100,2013-02-16 06:56:00,
2013-02-16 01:01:00,27.0,21.0,30.21,North,360,4.0,6.0,75,0.00,,,0.00,Rainwise IP-100,2013-02-16 07:01:00,
2013-02-16 01:06:00,27.0,21.0,30.21,North,360,4.0,6.0,74,0.00,,,0.00,Rainwise IP-100,2013-02-16 07:06:00,
2013-02-16 01:11:00,27.0,23.0,30.21,North,360,4.0,6.0,79,0.00,,,0.00,Rainwise IP-100,2013-02-16 07:11:00,
2013-02-16 01:17:00,27.0,23.0,30.21,North,360,4.0,6.0,81,0.00,,,0.00,Rainwise IP-100,2013-02-16 07:17:00,
2013-02-16 01:22:00,27.0,23.0,30.20,North,360,2.0,4.0,81,0.00,,,0.00,Rainwise IP-100,2013-02-16 07:22:00,
2013-02-16 01:27:00,27.0,23.0,30.20,North,360,5.0,6.0,82,0.00,,,0.00,Rainwise IP-100,2013-02-16 07:27:00,
2013-02-16 01:32:00,27.0,24.0,30.20,North,360,4.0,6.0,84,0.00,,,0.00,Rainwise IP-100,2013-02-16 07:32:00,
2013-02-16 01:37:00,27.0,24.0,30.19,North,360,5.0,5.0,86,0.00,,,0.00,Rainwise IP-100,2013-02-16 07:37:00,
2013-02-16 01:42:00,27.0,24.0,30.19,NNE,22,4.0,6.0,87,0.00,,,0.00,Rainwise IP-100,2013-02-16 07:42:00,
2013-02-16 01:47:00,27.0,24.0,30.19,North,360,5.0,6.0,87,0.00,,,0.00,Rainwise IP-100,2013-02-16 07:47:00,
2013-02-16 01:52:00,26.0,23.0,30.19,North,360,4.0,6.0,88,0.00,,,0.00,Rainwise IP-100,2013-02-16 07:52:00,
2013-02-16 01:57:00,26.0,23.0,30.19,North,360,3.0,6.0,88,0.00,,,0.00,Rainwise IP-100,2013-02-16 07:57:00,
2013-02-16 02:02:00,26.0,23.0,30.19,North,360,4.0,5.0,85,0.00,,,0.00,Rainwise IP-100,2013-02-16 08:02:00,
2013-02-16 02:07:00,26.0,23.0,30.19,North,360,4.0,5.0,83,0.00,,,0.00,Rainwise IP-100,2013-02-16 08:07:00,
2013-02-16 02:12:00,26.0,23.0,30.19,North,360,2.0,4.0,83,0.00,,,0.00,Rainwise IP-100,2013-02-16 08:12:00,
2013-02-16 02:17:00,26.0,21.0,30.19,North,360,1.0,3.0,82,0.00,,,0.00,Rainwise IP-100,2013-02-16 08:17:00,
2013-02-16 02:22:00,26.0,23.0,30.19,North,360,0.0,2.0,84,0.00,,,0.00,Rainwise IP-100,2013-02-16 08:22:00,
2013-02-16 02:27:00,25.0,23.0,30.19,North,360,0.0,0.0,83,0.00,,,0.00,Rainwise IP-100,2013-02-16 08:27:00,
2013-02-16 02:32:00,26.0,23.0,30.19,North,360,0.0,0.0,88,0.00,,,0.00,Rainwise IP-100,2013-02-16 08:32:00,
2013-02-16 02:37:00,26.0,24.0,30.19,North,360,0.0,0.0,90,0.00,,,0.00,Rainwise IP-100,2013-02-16 08:37:00,
2013-02-16 02:42:00,26.0,24.0,30.19,North,360,0.0,0.0,91,0.00,,,0.00,Rainwise IP-100,2013-02-16 08:42:00,
2013-02-16 02:47:00,26.0,24.0,30.18,North,360,0.0,0.0,91,0.00,,,0.00,Rainwise IP-100,2013-02-16 08:47:00,
2013-02-16 02:52:00,25.0,24.0,30.18,North,360,0.0,0.0,91,0.00,,,0.00,Rainwise IP-100,2013-02-16 08:52:00,
2013-02-16 02:57:00,25.0,24.0,30.18,North,360,0.0,0.0,92,0.00,,,0.00,Rainwise IP-100,2013-02-16 08:57:00,
2013-02-16 03:02:00,25.0,24.0,30.18,North,360,0.0,0.0,92,0.00,,,0.00,Rainwise IP-100,2013-02-16 09:02:00,
2013-02-16 03:07:00,25.0,24.0,30.18,North,360,0.0,0.0,92,0.00,,,0.00,Rainwise IP-100,2013-02-16 09:07:00,
2013-02-16 03:12:00,25.0,24.0,30.18,North,360,0.0,0.0,92,0.00,,,0.00,Rainwise IP-100,2013-02-16 09:12:00,
2013-02-16 03:17:00,24.0,23.0,30.18,North,360,0.0,0.0,92,0.00,,,0.00,Rainwise IP-100,2013-02-16 09:17:00,
2013-02-16 03:22:00,25.0,24.0,30.18,North,360,0.0,0.0,92,0.00,,,0.00,Rainwise IP-100,2013-02-16 09:22:00,
2013-02-16 03:27:00,25.0,24.0,30.18,North,360,0.0,0.0,90,0.00,,,0.00,Rainwise IP-100,2013-02-16 09:27:00,
2013-02-16 03:32:00,25.0,24.0,30.18,North,360,0.0,0.0,91,0.00,,,0.00,Rainwise IP-100,2013-02-16 09:32:00,
2013-02-16 03:37:00,25.0,21.0,30.18,North,360,0.0,0.0,82,0.00,,,0.00,Rainwise IP-100,2013-02-16 09:37:00,
2013-02-16 03:42:00,25.0,21.0,30.18,North,360,0.0,0.0,82,0.00,,,0.00,Rainwise IP-100,2013-02-16 09:42:00,
2013-02-16 03:47:00,25.0,21.0,30.18,North,360,0.0,0.0,81,0.00,,,0.00,Rainwise IP-100,2013-02-16 09:47:00,
2013-02-16 03:52:00,24.0,18.0,30.18,North,360,0.0,0.0,77,0.00,,,0.00,Rainwise IP-100,2013-02-16 09:52:00,
2013-02-16 03:55:00,24.0,18.0,30.18,North,360,0.0,0.0,77,0.00,,,0.00,Rainwise IP-100,2013-02-16 09:55:00,
2013-02-16 04:00:00,25.0,23.0,30.19,North,360,0.0,0.0,86,0.00,,,0.00,Rainwise IP-100,2013-02-16 10:00:00,
2013-02-16 04:05:00,25.0,23.0,30.19,North,360,0.0,0.0,88,0.00,,,0.00,Rainwise IP-100,2013-02-16 10:05:00,
2013-02-16 04:10:00,24.0,21.0,30.18,North,360,0.0,0.0,87,0.00,,,0.00,Rainwise IP-100,2013-02-16 10:10:00,
2013-02-16 04:15:00,25.0,23.0,30.18,North,360,0.0,0.0,84,0.00,,,0.00,Rainwise IP-100,2013-02-16 10:15:00,
2013-02-16 04:20:00,25.0,21.0,30.18,NW,315,1.0,1.0,79,0.00,,,0.00,Rainwise IP-100,2013-02-16 10:20:00,
2013-02-16 04:25:00,25.0,18.0,30.18,WSW,247,1.0,4.0,74,0.00,,,0.00,Rainwise IP-100,2013-02-16 10:25:00,
2013-02-16 04:30:00,25.0,21.0,30.18,WSW,247,0.0,1.0,78,0.00,,,0.00,Rainwise IP-100,2013-02-16 10:30:00,
2013-02-16 04:35:00,25.0,23.0,30.18,WSW,247,0.0,0.0,85,0.00,,,0.00,Rainwise IP-100,2013-02-16 10:35:00,
2013-02-16 04:40:00,25.0,23.0,30.18,WSW,247,0.0,0.0,85,0.00,,,0.00,Rainwise IP-100,2013-02-16 10:40:00,
2013-02-16 04:45:00,25.0,23.0,30.18,WSW,247,0.0,0.0,89,0.00,,,0.00,Rainwise IP-100,2013-02-16 10:45:00,
2013-02-16 04:50:00,25.0,23.0,30.18,WSW,247,0.0,0.0,89,0.00,,,0.00,Rainwise IP-100,2013-02-16 10:50:00,
2013-02-16 04:55:00,25.0,23.0,30.18,WSW,247,2.0,3.0,89,0.00,,,0.00,Rainwise IP-100,2013-02-16 10:55:00,
2013-02-16 05:00:00,25.0,23.0,30.18,WSW,247,0.0,3.0,84,0.00,,,0.00,Rainwise IP-100,2013-02-16 11:00:00,
2013-02-16 05:05:00,24.0,21.0,30.18,WSW,247,0.0,0.0,84,0.00,,,0.00,Rainwise IP-100,2013-02-16 11:05:00,
2013-02-16 05:10:00,24.0,21.0,30.18,WSW,247,0.0,0.0,86,0.00,,,0.00,Rainwise IP-100,2013-02-16 11:10:00,
2013-02-16 05:15:00,24.0,21.0,30.18,WSW,247,0.0,0.0,88,0.00,,,0.00,Rainwise IP-100,2013-02-16 11:15:00,
2013-02-16 05:20:00,24.0,23.0,30.18,WSW,247,1.0,2.0,89,0.00,,,0.00,Rainwise IP-100,2013-02-16 11:20:00,
2013-02-16 05:25:00,24.0,23.0,30.18,WSW,247,0.0,2.0,89,0.00,,,0.00,Rainwise IP-100,2013-02-16 11:25:00,
2013-02-16 05:30:00,24.0,23.0,30.19,NNW,337,5.0,5.0,90,0.00,,,0.00,Rainwise IP-100,2013-02-16 11:30:00,
2013-02-16 05:35:00,24.0,23.0,30.19,NNW,337,0.0,6.0,90,0.00,,,0.00,Rainwise IP-100,2013-02-16 11:35:00,
2013-02-16 05:40:00,25.0,23.0,30.20,West,270,4.0,7.0,88,0.00,,,0.00,Rainwise IP-100,2013-02-16 11:40:00,
2013-02-16 05:45:00,26.0,21.0,30.20,SW,225,2.0,6.0,78,0.00,,,0.00,Rainwise IP-100,2013-02-16 11:45:00,
2013-02-16 05:50:00,26.0,21.0,30.19,West,270,1.0,7.0,76,0.00,,,0.00,Rainwise IP-100,2013-02-16 11:50:00,
2013-02-16 05:55:00,26.0,18.0,30.19,WNW,292,3.0,10.0,73,0.00,,,0.00,Rainwise IP-100,2013-02-16 11:55:00,
2013-02-16 06:00:00,26.0,18.0,30.20,WNW,292,6.0,8.0,73,0.00,,,0.00,Rainwise IP-100,2013-02-16 12:00:00,
2013-02-16 06:05:00,26.0,18.0,30.20,WNW,292,6.0,9.0,73,0.00,,,0.00,Rainwise IP-100,2013-02-16 12:05:00,
2013-02-16 06:10:00,26.0,18.0,30.20,NW,315,5.0,9.0,73,0.00,,,0.00,Rainwise IP-100,2013-02-16 12:10:00,
2013-02-16 06:15:00,26.0,18.0,30.20,NNW,337,0.0,6.0,74,0.00,,,0.00,Rainwise IP-100,2013-02-16 12:15:00,
2013-02-16 06:20:00,26.0,21.0,30.20,North,360,1.0,7.0,76,0.00,,,0.00,Rainwise IP-100,2013-02-16 12:20:00,
2013-02-16 06:25:00,26.0,21.0,30.20,NNW,337,6.0,7.0,77,0.00,,,0.00,Rainwise IP-100,2013-02-16 12:25:00,
2013-02-16 06:30:00,26.0,21.0,30.20,NNW,337,2.0,11.0,77,0.00,,,0.00,Rainwise IP-100,2013-02-16 12:30:00,
2013-02-16 06:35:00,25.0,21.0,30.20,NW,315,3.0,7.0,76,0.00,,,0.00,Rainwise IP-100,2013-02-16 12:35:00,
2013-02-16 06:40:00,25.0,21.0,30.20,NNW,337,1.0,6.0,76,0.00,,,0.00,Rainwise IP-100,2013-02-16 12:40:00,
2013-02-16 06:45:00,25.0,21.0,30.20,NW,315,1.0,6.0,77,0.00,,,0.00,Rainwise IP-100,2013-02-16 12:45:00,
2013-02-16 06:50:00,25.0,21.0,30.21,NW,315,0.0,6.0,76,0.00,,,0.00,Rainwise IP-100,2013-02-16 12:50:00,
2013-02-16 06:55:00,25.0,21.0,30.21,NNW,337,6.0,7.0,76,0.00,,,0.00,Rainwise IP-100,2013-02-16 12:55:00,
2013-02-16 07:00:00,25.0,21.0,30.21,NNW,337,3.0,9.0,77,0.00,,,0.00,Rainwise IP-100,2013-02-16 13:00:00,
2013-02-16 07:05:00,25.0,21.0,30.21,NW,315,3.0,7.0,77,0.00,,,0.00,Rainwise IP-100,2013-02-16 13:05:00,
2013-02-16 07:10:00,25.0,21.0,30.21,NNE,22,2.0,6.0,78,0.00,,,0.00,Rainwise IP-100,2013-02-16 13:10:00,
2013-02-16 07:15:00,25.0,21.0,30.21,NW,315,2.0,7.0,78,0.00,,,0.00,Rainwise IP-100,2013-02-16 13:15:00,
2013-02-16 07:20:00,26.0,21.0,30.21,NW,315,6.0,6.0,77,0.00,,,0.00,Rainwise IP-100,2013-02-16 13:20:00,
2013-02-16 07:25:00,26.0,21.0,30.21,NW,315,7.0,7.0,77,0.00,,,0.00,Rainwise IP-100,2013-02-16 13:25:00,
2013-02-16 07:30:00,26.0,21.0,30.21,ESE,112,1.0,7.0,78,0.00,,,0.00,Rainwise IP-100,2013-02-16 13:30:00,
2013-02-16 07:35:00,26.0,21.0,30.21,North,360,6.0,7.0,76,0.00,,,0.00,Rainwise IP-100,2013-02-16 13:35:00,
2013-02-16 07:40:00,27.0,21.0,30.22,NNW,337,4.0,7.0,76,0.00,,,0.00,Rainwise IP-100,2013-02-16 13:40:00,
2013-02-16 07:45:00,27.0,21.0,30.22,North,360,3.0,9.0,75,0.00,,,0.00,Rainwise IP-100,2013-02-16 13:45:00,
2013-02-16 07:50:00,28.0,21.0,30.21,North,360,4.0,7.0,73,0.00,,,0.00,Rainwise IP-100,2013-02-16 13:50:00,
2013-02-16 07:55:00,28.0,21.0,30.21,NNW,337,6.0,7.0,72,0.00,,,0.00,Rainwise IP-100,2013-02-16 13:55:00,
2013-02-16 08:00:00,29.0,23.0,30.22,North,360,5.0,9.0,73,0.00,,,0.00,Rainwise IP-100,2013-02-16 14:00:00,
2013-02-16 08:05:00,30.0,23.0,30.22,NNW,337,5.0,10.0,71,0.00,,,0.00,Rainwise IP-100,2013-02-16 14:05:00,
2013-02-16 08:10:00,30.0,23.0,30.22,North,360,6.0,10.0,73,0.00,,,0.00,Rainwise IP-100,2013-02-16 14:10:00,
2013-02-16 08:15:00,30.0,23.0,30.22,NNW,337,2.0,8.0,71,0.00,,,0.00,Rainwise IP-100,2013-02-16 14:15:00,
2013-02-16 08:20:00,29.0,21.0,30.22,WNW,292,7.0,10.0,70,0.00,,,0.00,Rainwise IP-100,2013-02-16 14:20:00,
2013-02-16 08:25:00,30.0,23.0,30.22,North,360,8.0,12.0,71,0.00,,,0.00,Rainwise IP-100,2013-02-16 14:25:00,
2013-02-16 08:30:00,31.0,23.0,30.23,NE,45,7.0,9.0,72,0.00,,,0.00,Rainwise IP-100,2013-02-16 14:30:00,
2013-02-16 08:35:00,30.0,23.0,30.23,NNE,22,9.0,10.0,70,0.00,,,0.00,Rainwise IP-100,2013-02-16 14:35:00,
2013-02-16 08:40:00,30.0,23.0,30.23,East,90,5.0,14.0,70,0.00,,,0.00,Rainwise IP-100,2013-02-16 14:40:00,
2013-02-16 08:45:00,31.0,21.0,30.23,NW,315,0.0,13.0,67,0.00,,,0.00,Rainwise IP-100,2013-02-16 14:45:00,
2013-02-16 08:50:00,31.0,23.0,30.23,NNW,337,4.0,10.0,68,0.00,,,0.00,Rainwise IP-100,2013-02-16 14:50:00,
2013-02-16 08:55:00,31.0,23.0,30.23,North,360,4.0,11.0,70,0.00,,,0.00,Rainwise IP-100,2013-02-16 14:55:00,
2013-02-16 09:00:00,31.0,21.0,30.23,North,360,8.0,10.0,66,0.00,,,0.00,Rainwise IP-100,2013-02-16 15:00:00,
2013-02-16 09:05:00,30.0,23.0,30.23,NE,45,8.0,10.0,70,0.00,,,0.00,Rainwise IP-100,2013-02-16 15:05:00,
2013-02-16 09:10:00,31.0,23.0,30.24,West,270,5.0,11.0,68,0.00,,,0.00,Rainwise IP-100,2013-02-16 15:10:00,
2013-02-16 09:15:00,32.0,23.0,30.24,North,360,7.0,10.0,65,0.00,,,0.00,Rainwise IP-100,2013-02-16 15:15:00,
2013-02-16 09:20:00,31.0,21.0,30.23,North,360,8.0,10.0,65,0.00,,,0.00,Rainwise IP-100,2013-02-16 15:20:00,
2013-02-16 09:25:00,32.0,23.0,30.23,North,360,4.0,9.0,67,0.00,,,0.00,Rainwise IP-100,2013-02-16 15:25:00,
2013-02-16 09:30:00,32.0,23.0,30.23,NNE,22,9.0,12.0,64,0.00,,,0.00,Rainwise IP-100,2013-02-16 15:30:00,
2013-02-16 09:35:00,32.0,21.0,30.23,North,360,7.0,10.0,62,0.00,,,0.00,Rainwise IP-100,2013-02-16 15:35:00,
2013-02-16 09:40:00,32.0,21.0,30.23,North,360,6.0,10.0,59,0.00,,,0.00,Rainwise IP-100,2013-02-16 15:40:00,
2013-02-16 09:45:00,33.0,21.0,30.23,North,360,6.0,9.0,56,0.00,,,0.00,Rainwise IP-100,2013-02-16 15:45:00,
2013-02-16 09:50:00,34.0,21.0,30.23,North,360,7.0,8.0,55,0.00,,,0.00,Rainwise IP-100,2013-02-16 15:50:00,
2013-02-16 09:55:00,33.0,18.0,30.23,NNW,337,4.0,9.0,53,0.00,,,0.00,Rainwise IP-100,2013-02-16 15:55:00,
2013-02-16 10:00:00,34.0,21.0,30.23,WNW,292,3.0,8.0,55,0.00,,,0.00,Rainwise IP-100,2013-02-16 16:00:00,
2013-02-16 10:05:00,33.0,18.0,30.23,NNW,337,8.0,12.0,51,0.00,,,0.00,Rainwise IP-100,2013-02-16 16:05:00,
2013-02-16 10:10:00,34.0,18.0,30.23,NW,315,2.0,9.0,51,0.00,,,0.00,Rainwise IP-100,2013-02-16 16:10:00,
2013-02-16 10:15:00,33.0,18.0,30.23,NNE,22,8.0,10.0,53,0.00,,,0.00,Rainwise IP-100,2013-02-16 16:15:00,
2013-02-16 10:20:00,34.0,21.0,30.23,WNW,292,1.0,10.0,53,0.00,,,0.00,Rainwise IP-100,2013-02-16 16:20:00,
2013-02-16 10:25:00,33.0,18.0,30.23,North,360,1.0,9.0,52,0.00,,,0.00,Rainwise IP-100,2013-02-16 16:25:00,
2013-02-16 10:30:00,34.0,21.0,30.23,NE,45,9.0,10.0,55,0.00,,,0.00,Rainwise IP-100,2013-02-16 16:30:00,
2013-02-16 10:35:00,34.0,18.0,30.23,North,360,9.0,10.0,51,0.00,,,0.00,Rainwise IP-100,2013-02-16 16:35:00,
2013-02-16 10:40:00,35.0,21.0,30.22,North,360,7.0,9.0,54,0.00,,,0.00,Rainwise IP-100,2013-02-16 16:40:00,
2013-02-16 10:45:00,34.0,18.0,30.22,NE,45,6.0,10.0,52,0.00,,,0.00,Rainwise IP-100,2013-02-16 16:45:00,
2013-02-16 10:50:00,34.0,21.0,30.23,NE,45,3.0,9.0,53,0.00,,,0.00,Rainwise IP-100,2013-02-16 16:50:00,
2013-02-16 10:55:00,35.0,18.0,30.23,North,360,6.0,10.0,50,0.00,,,0.00,Rainwise IP-100,2013-02-16 16:55:00,
2013-02-16 11:00:00,35.0,18.0,30.22,NW,315,6.0,10.0,48,0.00,,,0.00,Rainwise IP-100,2013-02-16 17:00:00,
2013-02-16 11:05:00,36.0,18.0,30.22,WSW,247,1.0,9.0,48,0.00,,,0.00,Rainwise IP-100,2013-02-16 17:05:00,
2013-02-16 11:10:00,36.0,18.0,30.22,North,360,6.0,9.0,47,0.00,,,0.00,Rainwise IP-100,2013-02-16 17:10:00,
2013-02-16 11:15:00,36.0,16.0,30.22,West,270,7.0,8.0,44,0.00,,,0.00,Rainwise IP-100,2013-02-16 17:15:00,
2013-02-16 11:20:00,36.0,16.0,30.22,NNW,337,3.0,10.0,44,0.00,,,0.00,Rainwise IP-100,2013-02-16 17:20:00,
2013-02-16 11:25:00,37.0,18.0,30.22,NW,315,1.0,9.0,44,0.00,,,0.00,Rainwise IP-100,2013-02-16 17:25:00,
2013-02-16 11:30:00,35.0,14.0,30.22,WSW,247,1.0,10.0,42,0.00,,,0.00,Rainwise IP-100,2013-02-16 17:30:00,
2013-02-16 11:35:00,35.0,16.0,30.22,West,270,7.0,13.0,43,0.00,,,0.00,Rainwise IP-100,2013-02-16 17:35:00,
2013-02-16 11:40:00,34.0,16.0,30.23,NNW,337,5.0,12.0,43,0.00,,,0.00,Rainwise IP-100,2013-02-16 17:40:00,
2013-02-16 11:45:00,35.0,14.0,30.23,WSW,247,6.0,12.0,41,0.00,,,0.00,Rainwise IP-100,2013-02-16 17:45:00,
2013-02-16 11:50:00,35.0,14.0,30.22,NE,45,5.0,11.0,42,0.00,,,0.00,Rainwise IP-100,2013-02-16 17:50:00,
2013-02-16 11:55:00,34.0,16.0,30.22,NNE,22,7.0,9.0,43,0.00,,,0.00,Rainwise IP-100,2013-02-16 17:55:00,
2013-02-16 12:00:00,34.0,14.0,30.21,SW,225,5.0,12.0,38,0.00,,,0.00,Rainwise IP-100,2013-02-16 18:00:00,
2013-02-16 12:05:00,34.0,14.0,30.21,NW,315,5.0,11.0,40,0.00,,,0.00,Rainwise IP-100,2013-02-16 18:05:00,
2013-02-16 12:10:00,33.0,14.0,30.21,WNW,292,5.0,12.0,40,0.00,,,0.00,Rainwise IP-100,2013-02-16 18:10:00,
2013-02-16 12:15:00,36.0,16.0,30.21,NW,315,4.0,10.0,42,0.00,,,0.00,Rainwise IP-100,2013-02-16 18:15:00,
2013-02-16 12:20:00,36.0,14.0,30.20,NE,45,9.0,9.0,38,0.00,,,0.00,Rainwise IP-100,2013-02-16 18:20:00,
2013-02-16 12:25:00,36.0,16.0,30.20,North,360,7.0,12.0,41,0.00,,,0.00,Rainwise IP-100,2013-02-16 18:25:00,
2013-02-16 12:30:00,37.0,14.0,30.20,North,360,4.0,10.0,38,0.00,,,0.00,Rainwise IP-100,2013-02-16 18:30:00,
2013-02-16 12:35:00,37.0,16.0,30.20,North,360,6.0,12.0,40,0.00,,,0.00,Rainwise IP-100,2013-02-16 18:35:00,
2013-02-16 12:40:00,36.0,14.0,30.20,North,360,6.0,14.0,38,0.00,,,0.00,Rainwise IP-100,2013-02-16 18:40:00,
2013-02-16 12:45:00,35.0,11.0,30.20,NNE,22,9.0,10.0,35,0.00,,,0.00,Rainwise IP-100,2013-02-16 18:45:00,
2013-02-16 12:50:00,36.0,11.0,30.19,South,180,1.0,12.0,35,0.00,,,0.00,Rainwise IP-100,2013-02-16 18:50:00,
2013-02-16 12:55:00,36.0,14.0,30.19,NE,45,9.0,12.0,38,0.00,,,0.00,Rainwise IP-100,2013-02-16 18:55:00,
2013-02-16 13:00:00,36.0,16.0,30.19,North,360,5.0,11.0,41,0.00,,,0.00,Rainwise IP-100,2013-02-16 19:00:00,
2013-02-16 13:05:00,36.0,14.0,30.19,NW,315,10.0,14.0,37,0.00,,,0.00,Rainwise IP-100,2013-02-16 19:05:00,
2013-02-16 13:10:00,36.0,14.0,30.19,NW,315,3.0,13.0,36,0.00,,,0.00,Rainwise IP-100,2013-02-16 19:10:00,
2013-02-16 13:15:00,37.0,16.0,30.19,North,360,4.0,9.0,39,0.00,,,0.00,Rainwise IP-100,2013-02-16 19:15:00,
2013-02-16 13:20:00,37.0,16.0,30.19,West,270,1.0,11.0,39,0.00,,,0.00,Rainwise IP-100,2013-02-16 19:20:00,
2013-02-16 13:25:00,36.0,14.0,30.19,ESE,112,0.0,10.0,38,0.00,,,0.00,Rainwise IP-100,2013-02-16 19:25:00,
2013-02-16 13:30:00,36.0,14.0,30.19,NNW,337,10.0,10.0,39,0.00,,,0.00,Rainwise IP-100,2013-02-16 19:30:00,
2013-02-16 13:35:00,37.0,16.0,30.19,North,360,3.0,15.0,41,0.00,,,0.00,Rainwise IP-100,2013-02-16 19:35:00,
2013-02-16 13:40:00,38.0,16.0,30.17,WSW,247,5.0,11.0,41,0.00,,,0.00,Rainwise IP-100,2013-02-16 19:40:00,
2013-02-16 13:45:00,37.0,14.0,30.17,ESE,112,2.0,13.0,37,0.00,,,0.00,Rainwise IP-100,2013-02-16 19:45:00,
2013-02-16 13:50:00,38.0,18.0,30.18,NNE,22,12.0,13.0,42,0.00,,,0.00,Rainwise IP-100,2013-02-16 19:50:00,
2013-02-16 13:55:00,37.0,11.0,30.18,WNW,292,8.0,16.0,34,0.00,,,0.00,Rainwise IP-100,2013-02-16 19:55:00,
2013-02-16 14:00:00,38.0,14.0,30.19,North,360,7.0,10.0,34,0.00,,,0.00,Rainwise IP-100,2013-02-16 20:00:00,
2013-02-16 14:05:00,37.0,11.0,30.19,NW,315,2.0,9.0,34,0.00,,,0.00,Rainwise IP-100,2013-02-16 20:05:00,
2013-02-16 14:10:00,39.0,14.0,30.18,North,360,5.0,10.0,34,0.00,,,0.00,Rainwise IP-100,2013-02-16 20:10:00,
2013-02-16 14:15:00,37.0,11.0,30.18,NE,45,6.0,9.0,34,0.00,,,0.00,Rainwise IP-100,2013-02-16 20:15:00,
2013-02-16 14:20:00,38.0,14.0,30.18,North,360,9.0,11.0,33,0.00,,,0.00,Rainwise IP-100,2013-02-16 20:20:00,
2013-02-16 14:25:00,38.0,14.0,30.18,North,360,9.0,12.0,35,0.00,,,0.00,Rainwise IP-100,2013-02-16 20:25:00,
2013-02-16 14:30:00,36.0,11.0,30.19,North,360,9.0,12.0,34,0.00,,,0.00,Rainwise IP-100,2013-02-16 20:30:00,
2013-02-16 14:35:00,37.0,14.0,30.19,NW,315,9.0,13.0,35,0.00,,,0.00,Rainwise IP-100,2013-02-16 20:35:00,
2013-02-16 14:40:00,38.0,14.0,30.18,North,360,4.0,10.0,33,0.00,,,0.00,Rainwise IP-100,2013-02-16 20:40:00,
2013-02-16 14:45:00,38.0,14.0,30.18,North,360,7.0,9.0,33,0.00,,,0.00,Rainwise IP-100,2013-02-16 20:45:00,
2013-02-16 14:50:00,37.0,11.0,30.19,NW,315,5.0,12.0,34,0.00,,,0.00,Rainwise IP-100,2013-02-16 20:50:00,
2013-02-16 14:55:00,36.0,11.0,30.19,NE,45,7.0,12.0,32,0.00,,,0.00,Rainwise IP-100,2013-02-16 20:55:00,
2013-02-16 15:00:00,37.0,14.0,30.19,NW,315,7.0,9.0,35,0.00,,,0.00,Rainwise IP-100,2013-02-16 21:00:00,
2013-02-16 15:05:00,38.0,11.0,30.19,NNW,337,7.0,10.0,32,0.00,,,0.00,Rainwise IP-100,2013-02-16 21:05:00,
2013-02-16 15:10:00,39.0,11.0,30.18,ENE,67,1.0,7.0,31,0.00,,,0.00,Rainwise IP-100,2013-02-16 21:10:00,
2013-02-16 15:15:00,38.0,16.0,30.18,North,360,7.0,9.0,38,0.00,,,0.00,Rainwise IP-100,2013-02-16 21:15:00,
2013-02-16 15:20:00,38.0,14.0,30.19,North,360,10.0,12.0,33,0.00,,,0.00,Rainwise IP-100,2013-02-16 21:20:00,
2013-02-16 15:25:00,37.0,11.0,30.19,North,360,8.0,10.0,34,0.00,,,0.00,Rainwise IP-100,2013-02-16 21:25:00,
2013-02-16 15:30:00,36.0,14.0,30.20,North,360,6.0,12.0,36,0.00,,,0.00,Rainwise IP-100,2013-02-16 21:30:00,
2013-02-16 15:35:00,37.0,11.0,30.20,WNW,292,5.0,7.0,33,0.00,,,0.00,Rainwise IP-100,2013-02-16 21:35:00,
2013-02-16 15:40:00,36.0,11.0,30.19,WNW,292,5.0,13.0,31,0.00,,,0.00,Rainwise IP-100,2013-02-16 21:40:00,
2013-02-16 15:45:00,36.0,8.0,30.19,NE,45,4.0,11.0,30,0.00,,,0.00,Rainwise IP-100,2013-02-16 21:45:00,
2013-02-16 15:50:00,36.0,8.0,30.19,NNW,337,7.0,12.0,30,0.00,,,0.00,Rainwise IP-100,2013-02-16 21:50:00,
2013-02-16 15:55:00,36.0,11.0,30.19,NW,315,3.0,10.0,32,0.00,,,0.00,Rainwise IP-100,2013-02-16 21:55:00,
2013-02-16 16:00:00,37.0,11.0,30.19,WSW,247,4.0,8.0,33,0.00,,,0.00,Rainwise IP-100,2013-02-16 22:00:00,
2013-02-16 16:05:00,36.0,11.0,30.19,NNW,337,5.0,9.0,31,0.00,,,0.00,Rainwise IP-100,2013-02-16 22:05:00,
2013-02-16 16:10:00,35.0,11.0,30.19,NNE,22,6.0,9.0,33,0.00,,,0.00,Rainwise IP-100,2013-02-16 22:10:00,
2013-02-16 16:15:00,35.0,11.0,30.19,NW,315,2.0,9.0,35,0.00,,,0.00,Rainwise IP-100,2013-02-16 22:15:00,
2013-02-16 16:20:00,35.0,11.0,30.20,NNE,22,4.0,10.0,36,0.00,,,0.00,Rainwise IP-100,2013-02-16 22:20:00,
2013-02-16 16:25:00,35.0,11.0,30.20,WNW,292,4.0,9.0,37,0.00,,,0.00,Rainwise IP-100,2013-02-16 22:25:00,
2013-02-16 16:30:00,35.0,11.0,30.19,WNW,292,5.0,9.0,33,0.00,,,0.00,Rainwise IP-100,2013-02-16 22:30:00,
2013-02-16 16:35:00,35.0,11.0,30.19,North,360,2.0,6.0,33,0.00,,,0.00,Rainwise IP-100,2013-02-16 22:35:00,
2013-02-16 16:40:00,35.0,11.0,30.19,North,360,5.0,5.0,36,0.00,,,0.00,Rainwise IP-100,2013-02-16 22:40:00,
2013-02-16 16:45:00,34.0,11.0,30.19,West,270,0.0,8.0,35,0.00,,,0.00,Rainwise IP-100,2013-02-16 22:45:00,
2013-02-16 16:50:00,34.0,14.0,30.20,North,360,4.0,9.0,39,0.00,,,0.00,Rainwise IP-100,2013-02-16 22:50:00,
2013-02-16 16:55:00,33.0,11.0,30.20,North,360,7.0,7.0,39,0.00,,,0.00,Rainwise IP-100,2013-02-16 22:55:00,
2013-02-16 17:00:00,33.0,11.0,30.19,North,360,6.0,9.0,38,0.00,,,0.00,Rainwise IP-100,2013-02-16 23:00:00,
2013-02-16 17:05:00,33.0,14.0,30.19,NNW,337,3.0,9.0,40,0.00,,,0.00,Rainwise IP-100,2013-02-16 23:05:00,
2013-02-16 17:10:00,33.0,14.0,30.19,NNW,337,4.0,7.0,40,0.00,,,0.00,Rainwise IP-100,2013-02-16 23:10:00,
2013-02-16 17:15:00,33.0,11.0,30.19,NW,315,3.0,9.0,38,0.00,,,0.00,Rainwise IP-100,2013-02-16 23:15:00,
2013-02-16 17:20:00,32.0,11.0,30.19,North,360,3.0,5.0,39,0.00,,,0.00,Rainwise IP-100,2013-02-16 23:20:00,
2013-02-16 17:25:00,32.0,11.0,30.19,NW,315,1.0,6.0,40,0.00,,,0.00,Rainwise IP-100,2013-02-16 23:25:00,
2013-02-16 17:30:00,32.0,11.0,30.20,WNW,292,4.0,5.0,38,0.00,,,0.00,Rainwise IP-100,2013-02-16 23:30:00,
2013-02-16 17:35:00,32.0,11.0,30.20,WNW,292,4.0,6.0,38,0.00,,,0.00,Rainwise IP-100,2013-02-16 23:35:00,
2013-02-16 17:40:00,32.0,11.0,30.20,WNW,292,2.0,5.0,39,0.00,,,0.00,Rainwise IP-100,2013-02-16 23:40:00,
2013-02-16 17:45:00,31.0,8.0,30.20,WNW,292,3.0,3.0,38,0.00,,,0.00,Rainwise IP-100,2013-02-16 23:45:00,
2013-02-16 17:50:00,31.0,11.0,30.20,WNW,292,2.0,4.0,39,0.00,,,0.00,Rainwise IP-100,2013-02-16 23:50:00,
2013-02-16 17:55:00,31.0,8.0,30.20,NW,315,2.0,8.0,38,0.00,,,0.00,Rainwise IP-100,2013-02-16 23:55:00,
2013-02-16 18:00:00,31.0,11.0,30.20,WNW,292,1.0,4.0,40,0.00,,,0.00,Rainwise IP-100,2013-02-17 00:00:00,
2013-02-16 18:05:00,31.0,11.0,30.20,WNW,292,1.0,6.0,39,0.00,,,0.00,Rainwise IP-100,2013-02-17 00:05:00,
2013-02-16 18:10:00,31.0,8.0,30.20,NW,315,3.0,7.0,38,0.00,,,0.00,Rainwise IP-100,2013-02-17 00:10:00,
2013-02-16 18:15:00,31.0,8.0,30.20,WNW,292,3.0,5.0,38,0.00,,,0.00,Rainwise IP-100,2013-02-17 00:15:00,
2013-02-16 18:20:00,30.0,11.0,30.20,WNW,292,1.0,5.0,39,0.00,,,0.00,Rainwise IP-100,2013-02-17 00:20:00,
2013-02-16 18:25:00,30.0,8.0,30.20,WNW,292,1.0,3.0,38,0.00,,,0.00,Rainwise IP-100,2013-02-17 00:25:00,
2013-02-16 18:30:00,30.0,11.0,30.21,WNW,292,2.0,3.0,39,0.00,,,0.00,Rainwise IP-100,2013-02-17 00:30:00,
2013-02-16 18:35:00,30.0,11.0,30.21,WNW,292,2.0,4.0,39,0.00,,,0.00,Rainwise IP-100,2013-02-17 00:35:00,
2013-02-16 18:40:00,30.0,11.0,30.21,WNW,292,2.0,3.0,39,0.00,,,0.00,Rainwise IP-100,2013-02-17 00:40:00,
2013-02-16 18:45:00,30.0,11.0,30.21,WNW,292,2.0,3.0,40,0.00,,,0.00,Rainwise IP-100,2013-02-17 00:45:00,
2013-02-16 18:50:00,30.0,11.0,30.21,WNW,292,1.0,3.0,39,0.00,,,0.00,Rainwise IP-100,2013-02-17 00:50:00,
2013-02-16 18:55:00,29.0,8.0,30.21,WNW,292,1.0,3.0,38,0.00,,,0.00,Rainwise IP-100,2013-02-17 00:55:00,
2013-02-16 19:00:00,29.0,8.0,30.21,WNW,292,2.0,3.0,38,0.00,,,0.00,Rainwise IP-100,2013-02-17 01:00:00,
2013-02-16 19:05:00,29.0,8.0,30.21,WNW,292,2.0,3.0,39,0.00,,,0.00,Rainwise IP-100,2013-02-17 01:05:00,
2013-02-16 19:10:00,29.0,8.0,30.21,WNW,292,1.0,4.0,40,0.00,,,0.00,Rainwise IP-100,2013-02-17 01:10:00,
2013-02-16 19:15:00,29.0,8.0,30.21,WNW,292,3.0,3.0,39,0.00,,,0.00,Rainwise IP-100,2013-02-17 01:15:00,
2013-02-16 19:20:00,29.0,8.0,30.21,WNW,292,0.0,3.0,39,0.00,,,0.00,Rainwise IP-100,2013-02-17 01:20:00,
2013-02-16 19:25:00,28.0,8.0,30.21,WNW,292,1.0,2.0,39,0.00,,,0.00,Rainwise IP-100,2013-02-17 01:25:00,
2013-02-16 19:30:00,28.0,8.0,30.21,WNW,292,2.0,2.0,39,0.00,,,0.00,Rainwise IP-100,2013-02-17 01:30:00,
2013-02-16 19:35:00,28.0,8.0,30.21,WNW,292,2.0,2.0,41,0.00,,,0.00,Rainwise IP-100,2013-02-17 01:35:00,
2013-02-16 19:40:00,28.0,14.0,30.21,WNW,292,0.0,2.0,52,0.00,,,0.00,Rainwise IP-100,2013-02-17 01:40:00,
2013-02-16 19:45:00,28.0,8.0,30.21,West,270,2.0,4.0,41,0.00,,,0.00,Rainwise IP-100,2013-02-17 01:45:00,
2013-02-16 19:50:00,28.0,11.0,30.21,West,270,0.0,3.0,44,0.00,,,0.00,Rainwise IP-100,2013-02-17 01:50:00,
2013-02-16 19:55:00,27.0,14.0,30.21,West,270,0.0,0.0,55,0.00,,,0.00,Rainwise IP-100,2013-02-17 01:55:00,
2013-02-16 20:00:00,27.0,11.0,30.21,West,270,0.0,0.0,44,0.00,,,0.00,Rainwise IP-100,2013-02-17 02:00:00,
2013-02-16 20:05:00,28.0,8.0,30.21,West,270,2.0,3.0,43,0.00,,,0.00,Rainwise IP-100,2013-02-17 02:05:00,
2013-02-16 20:10:00,28.0,11.0,30.21,West,270,0.0,2.0,44,0.00,,,0.00,Rainwise IP-100,2013-02-17 02:10:00,
2013-02-16 20:15:00,28.0,11.0,30.21,West,270,0.0,2.0,45,0.00,,,0.00,Rainwise IP-100,2013-02-17 02:15:00,
2013-02-16 20:20:00,28.0,11.0,30.21,West,270,0.0,1.0,46,0.00,,,0.00,Rainwise IP-100,2013-02-17 02:20:00,
2013-02-16 20:25:00,27.0,11.0,30.21,West,270,0.0,0.0,47,0.00,,,0.00,Rainwise IP-100,2013-02-17 02:25:00,
2013-02-16 20:30:00,27.0,11.0,30.21,West,270,0.0,0.0,48,0.00,,,0.00,Rainwise IP-100,2013-02-17 02:30:00,
2013-02-16 20:35:00,27.0,14.0,30.21,West,270,0.0,0.0,53,0.00,,,0.00,Rainwise IP-100,2013-02-17 02:35:00,
2013-02-16 20:40:00,27.0,18.0,30.21,West,270,0.0,0.0,64,0.00,,,0.00,Rainwise IP-100,2013-02-17 02:40:00,
2013-02-16 20:45:00,27.0,18.0,30.21,West,270,0.0,0.0,69,0.00,,,0.00,Rainwise IP-100,2013-02-17 02:45:00,
2013-02-16 20:50:00,26.0,18.0,30.22,West,270,0.0,0.0,72,0.00,,,0.00,Rainwise IP-100,2013-02-17 02:50:00,
2013-02-16 20:55:00,26.0,18.0,30.22,West,270,0.0,0.0,72,0.00,,,0.00,Rainwise IP-100,2013-02-17 02:55:00,
2013-02-16 21:00:00,26.0,18.0,30.23,West,270,0.0,0.0,69,0.00,,,0.00,Rainwise IP-100,2013-02-17 03:00:00,
2013-02-16 21:05:00,26.0,16.0,30.23,West,270,0.0,0.0,65,0.00,,,0.00,Rainwise IP-100,2013-02-17 03:05:00,
2013-02-16 21:10:00,26.0,18.0,30.22,West,270,0.0,0.0,73,0.00,,,0.00,Rainwise IP-100,2013-02-17 03:10:00,
2013-02-16 21:15:00,25.0,18.0,30.22,West,270,0.0,0.0,73,0.00,,,0.00,Rainwise IP-100,2013-02-17 03:15:00,
2013-02-16 21:20:00,25.0,21.0,30.22,West,270,0.0,0.0,76,0.00,,,0.00,Rainwise IP-100,2013-02-17 03:20:00,
2013-02-16 21:25:00,24.0,18.0,30.22,West,270,0.0,0.0,76,0.00,,,0.00,Rainwise IP-100,2013-02-17 03:25:00,
2013-02-16 21:30:00,24.0,18.0,30.23,West,270,0.0,0.0,77,0.00,,,0.00,Rainwise IP-100,2013-02-17 03:30:00,
2013-02-16 21:35:00,25.0,21.0,30.23,West,270,0.0,0.0,81,0.00,,,0.00,Rainwise IP-100,2013-02-17 03:35:00,
2013-02-16 21:40:00,25.0,21.0,30.22,West,270,0.0,0.0,80,0.00,,,0.00,Rainwise IP-100,2013-02-17 03:40:00,
2013-02-16 21:45:00,25.0,21.0,30.22,West,270,0.0,0.0,78,0.00,,,0.00,Rainwise IP-100,2013-02-17 03:45:00,
2013-02-16 21:50:00,25.0,21.0,30.22,West,270,0.0,0.0,75,0.00,,,0.00,Rainwise IP-100,2013-02-17 03:50:00,
2013-02-16 21:55:00,25.0,21.0,30.22,West,270,0.0,0.0,81,0.00,,,0.00,Rainwise IP-100,2013-02-17 03:55:00,
2013-02-16 22:00:00,25.0,23.0,30.22,West,270,0.0,0.0,83,0.00,,,0.00,Rainwise IP-100,2013-02-17 04:00:00,
2013-02-16 22:05:00,25.0,23.0,30.22,West,270,0.0,0.0,84,0.00,,,0.00,Rainwise IP-100,2013-02-17 04:05:00,
2013-02-16 22:10:00,25.0,23.0,30.22,West,270,0.0,0.0,85,0.00,,,0.00,Rainwise IP-100,2013-02-17 04:10:00,
2013-02-16 22:15:00,25.0,23.0,30.22,West,270,0.0,0.0,84,0.00,,,0.00,Rainwise IP-100,2013-02-17 04:15:00,
2013-02-16 22:20:00,25.0,23.0,30.22,West,270,0.0,0.0,84,0.00,,,0.00,Rainwise IP-100,2013-02-17 04:20:00,
2013-02-16 22:25:00,25.0,23.0,30.22,West,270,0.0,0.0,86,0.00,,,0.00,Rainwise IP-100,2013-02-17 04:25:00,
2013-02-16 22:30:00,25.0,23.0,30.22,West,270,0.0,0.0,86,0.00,,,0.00,Rainwise IP-100,2013-02-17 04:30:00,
2013-02-16 22:35:00,24.0,21.0,30.22,West,270,0.0,0.0,86,0.00,,,0.00,Rainwise IP-100,2013-02-17 04:35:00,
2013-02-16 22:40:00,24.0,21.0,30.22,West,270,0.0,0.0,87,0.00,,,0.00,Rainwise IP-100,2013-02-17 04:40:00,
2013-02-16 22:45:00,24.0,21.0,30.22,West,270,0.0,0.0,87,0.00,,,0.00,Rainwise IP-100,2013-02-17 04:45:00,
2013-02-16 22:50:00,24.0,21.0,30.22,West,270,0.0,0.0,87,0.00,,,0.00,Rainwise IP-100,2013-02-17 04:50:00,
2013-02-16 22:55:00,24.0,21.0,30.22,West,270,0.0,0.0,86,0.00,,,0.00,Rainwise IP-100,2013-02-17 04:55:00,
2013-02-16 23:00:00,24.0,21.0,30.22,West,270,0.0,0.0,87,0.00,,,0.00,Rainwise IP-100,2013-02-17 05:00:00,
2013-02-16 23:05:00,24.0,21.0,30.22,West,270,0.0,0.0,88,0.00,,,0.00,Rainwise IP-100,2013-02-17 05:05:00,
2013-02-16 23:10:00,24.0,21.0,30.22,West,270,0.0,0.0,87,0.00,,,0.00,Rainwise IP-100,2013-02-17 05:10:00,
2013-02-16 23:15:00,24.0,21.0,30.22,West,270,0.0,0.0,87,0.00,,,0.00,Rainwise IP-100,2013-02-17 05:15:00,
2013-02-16 23:20:00,23.0,18.0,30.22,West,270,0.0,0.0,87,0.00,,,0.00,Rainwise IP-100,2013-02-17 05:20:00,
2013-02-16 23:25:00,24.0,21.0,30.22,West,270,2.0,2.0,87,0.00,,,0.00,Rainwise IP-100,2013-02-17 05:25:00,
2013-02-16 23:30:00,24.0,21.0,30.22,West,270,1.0,2.0,86,0.00,,,0.00,Rainwise IP-100,2013-02-17 05:30:00,
2013-02-16 23:35:00,24.0,21.0,30.22,West,270,2.0,2.0,85,0.00,,,0.00,Rainwise IP-100,2013-02-17 05:35:00,
2013-02-16 23:40:00,24.0,21.0,30.22,West,270,2.0,3.0,84,0.00,,,0.00,Rainwise IP-100,2013-02-17 05:40:00,
2013-02-16 23:45:00,24.0,21.0,30.22,West,270,0.0,3.0,82,0.00,,,0.00,Rainwise IP-100,2013-02-17 05:45:00,
2013-02-16 23:50:00,24.0,21.0,30.22,West,270,0.0,0.0,83,0.00,,,0.00,Rainwise IP-100,2013-02-17 05:50:00,
2013-02-16 23:55:00,24.0,21.0,30.22,West,270,1.0,3.0,84,0.00,,,0.00,Rainwise IP-100,2013-02-17 05:55:00,